Lykens, Ohio
Current Conditions -  °F | °C
As of 1:20 AM on Monday 26 Jan 2015 (Local Time) from KMNN Reporting Station
Light Snow Light Snow  
Wind Chill:   Ceiling: 2400
Heat Index: 20°   Visibility: 1mi
Dew Point: 16°   Wind: 18mph
Humidity: 85%   Direction: 40°NE
Pressure: 29.8"   Gusts: NA
Location:  40.9956°N, 82.9974°W
Report Text: KMNN 260620Z AUTO 04016KT 1SM -SN BR OVC024 M07/M09 A2980 RMK AO2 P0000 T10671089 TSNO
Loading
Personal Weather Stations






























Interactive Weather Map New forecast layout! Learn more

10-Day Weather Forecast

Advertisements
Track Severe Weather on mobile